x

South Georgian Bay (45143) Wave Buoy

3:00am - Tue 24th Oct 2017 All times are CDT. -5 hours from GMT.

  • Sig Wave height 4.9ft
  • Peak Period 5s
  • Wind
    27mph, 36mph gusts
  • Sea Temp 57°f
  • Air Temp 59°f
  • Sea Pressure 993.4mb
  • South Georgian Bay
  • South Georgian Bay

More Historic Weather Station data

Upgrade to MSW Pro to gain access to the past 30 days of data for over 8000 Wavebouys and Weather Stations around the globe.

Join

Comparision Forecast

View Surf forecast
   
Tue 10/24 3:00am 5ft 5s 27 36 mph 993.4mb 57f 59f
2:00am 5ft 5s 27 34 mph 993.9mb 57f 59f
1:00am 4.5ft 5s 25 31 mph 994.6mb 57f 59f
12:00am 5ft 5s 25 29 mph 995.2mb 57f 59f
Mon 10/23 11:00pm 5.5ft 5s 27 31 mph 996.5mb 57f 60f
10:00pm 5.5ft 5s 27 34 mph 997.9mb 57f 60f
9:00pm 5ft 5s 29 36 mph 998.9mb 57f 60f
8:00pm 4.5ft 5s 29 36 mph 1000.5mb 57f 59f
7:00pm 3.5ft 4s 27 31 mph 1002mb 57f 60f
6:00pm 3.5ft 4s 25 29 mph 1003.9mb 57f 59f
5:00pm 3.5ft 4s 20 27 mph 1005.3mb 57f 59f
4:00pm 3.5ft 4s 18 22 mph 1006.1mb 57f 60f
3:00pm 3ft 4s 22 27 mph 1006.5mb 57f 61f
2:00pm 3ft 4s 18 22 mph 1007.7mb 57f 62f
1:00pm 2.5ft 4s 20 25 mph 1009.1mb 57f 61f
12:00pm 2.5ft 4s 16 20 mph 1010.2mb 57f 60f
11:00am 2.5ft 4s 18 22 mph 1011.2mb 57f 60f
10:00am 2.5ft 4s 18 20 mph 1012.2mb 57f 59f
9:00am 2.5ft 4s 16 18 mph 1012.9mb 57f 59f
8:00am 2.5ft 4s 13 16 mph 1013.5mb 57f 59f
7:00am 2ft 4s 13 18 mph 1013.6mb 57f 60f
6:00am 2ft 3s 16 18 mph 1013.9mb 57f 61f
5:00am 1.6ft 3s 13 16 mph 1014.2mb 57f 61f
4:00am 1.6ft 3s 13 16 mph 1014.5mb 57f 61f
3:00am 1.6ft 3s 13 13 mph 1014.8mb 57f 62f
2:00am 2ft 4s 11 13 mph 1015.2mb 57f 61f
1:00am 2ft 4s 11 13 mph 1015.7mb 57f 63f
12:00am 2.5ft 4s 13 16 mph 1015.9mb 57f 63f
Sun 10/22 11:00pm 2.5ft 3s 13 16 mph 1016.3mb 57f 60f
10:00pm 2.5ft 4s 16 18 mph 1016.5mb 57f 62f
9:00pm 2ft 3s 18 20 mph 1017.2mb 57f 63f
8:00pm 1.6ft 3s 11 13 mph 1018mb 57f 62f
7:00pm 1.3ft 3s 13 16 mph 1017.9mb 57f 63f
6:00pm 1.3ft 3s 13 18 mph 1017.3mb 57f 63f
5:00pm 1.3ft 3s 13 13 mph 1016.9mb 58f 63f
4:00pm 1.3ft 3s 13 16 mph 1017.2mb 58f 64f
3:00pm 1.3ft 3s 9 9 mph 1017.8mb 58f 62f
2:00pm 1.6ft 4s 9 11 mph 1018.3mb 58f 62f
1:00pm 2ft 4s 9 11 mph 1019.3mb 57f 61f
12:00pm 2ft 4s 9 13 mph 1020.2mb 57f 60f
11:00am 2ft 4s 9 11 mph 1021mb 57f 59f
10:00am 2ft 4s 11 13 mph 1021.5mb 56f 59f
9:00am 2ft 3s 13 16 mph 1021.6mb 56f 59f
8:00am 1.6ft 3s 13 18 mph 1021.5mb 56f 58f
7:00am 1.3ft 3s 13 16 mph 1021.1mb 56f 59f
6:00am 1.3ft 3s 16 18 mph 1021.3mb 56f 60f
5:00am 1ft 3s 13 16 mph 1021.8mb 56f 60f
4:00am 1ft 3s 13 16 mph 1021.8mb 57f 61f
3:00am 1ft 3s 9 13 mph 1021.8mb 57f 59f
2:00am 1ft 3s 9 13 mph 1021.8mb 57f 60f
1:00am 1ft 3s 11 11 mph 1021.5mb 57f 60f
12:00am 1ft 3s 4 4 mph 1021.4mb 57f 59f
Sat 10/21 11:00pm 1ft 3s 4 4 mph 1021.4mb 57f 59f
10:00pm 1ft 3s 11 13 mph 1021.2mb 57f 60f
9:00pm 0.7ft 2s 13 13 mph 1021.2mb 57f 62f
8:00pm 0.7ft 2s 11 13 mph 1021.6mb 57f 61f
7:00pm 0.7ft 2s 11 13 mph 1021.7mb 57f 62f
6:00pm 0.7ft 2s 9 9 mph 1021.6mb 57f 62f
5:00pm 0.3ft 2s 9 9 mph 1021.4mb 57f 61f
4:00pm 0.7ft 2s 9 9 mph 1021.3mb 57f 62f
3:00pm 0.7ft 2s 9 9 mph 1021.5mb 57f 61f
2:00pm 0.7ft 2s 9 11 mph 1021.5mb 57f 60f
1:00pm 1ft 3s 9 9 mph 1021.5mb 57f 60f
12:00pm 1ft 3s 7 7 mph 1021.7mb 57f 60f
11:00am 1.3ft 3s 9 11 mph 1022.2mb 57f 60f
10:00am 1.3ft 3s 9 9 mph 1022.4mb 57f 58f
9:00am 1.3ft 3s 9 11 mph 1022.2mb 56f 58f
8:00am 1.3ft 3s 7 9 mph 1022.3mb 56f 58f
7:00am 1.3ft 3s 13 16 mph 1022mb 56f 59f
6:00am 1.6ft 3s 13 16 mph 1021.5mb 56f 59f
5:00am 1.6ft 3s 16 18 mph 1021.3mb 56f 60f
4:00am 1.6ft 3s 13 18 mph 1020.9mb 56f 59f
3:00am 2ft 3s 16 20 mph 1020.7mb 57f 60f
2:00am 2ft 3s 16 18 mph 1020.4mb 57f 59f
1:00am 2.5ft 4s 16 18 mph 1020.2mb 57f 59f
12:00am 2.5ft 4s 18 20 mph 1019.7mb 57f 59f
Fri 10/20 11:00pm 2.5ft 4s 22 27 mph 1019mb 57f 59f
10:00pm 2.5ft 4s 22 25 mph 1018.9mb 57f 60f
9:00pm 2ft 3s 20 22 mph 1018.7mb 57f 60f
8:00pm 1ft 3s 18 20 mph 1018.6mb 57f 61f
7:00pm 1ft 3s 11 11 mph 1018.7mb 57f 60f
6:00pm 1.3ft 3s 9 11 mph 1018.8mb 57f 61f
5:00pm 1.3ft 3s 13 16 mph 1018.6mb 57f 62f
4:00pm 1.3ft 3s 13 16 mph 1018.7mb 57f 62f
3:00pm 1ft 3s 13 13 mph 1019.2mb 57f 62f
2:00pm 1.3ft 3s 11 13 mph 1019.7mb 57f 62f
1:00pm 1.3ft 3s 13 16 mph 1020.2mb 57f 62f
12:00pm 1.6ft 3s 11 13 mph 1020.9mb 57f 61f
11:00am 1.6ft 3s 11 13 mph 1021.7mb 57f 58f
10:00am 1.6ft 3s 13 16 mph 1022.2mb 57f 56f